Selawik, AK

7:35 AM AKDT on October 22, 2014 (GMT -0800)
Baker Memorial | Change Station
CLOSE
Current Station
Airport
Location: Kiana,
Elevation: 151 ft
Nearby Weather Stations

Elev 151 ft 66.98 °N, 160.44 °W | Updated 34 minutes ago

Clear
Clear
13 °F
Feels Like 7 °F
N
4
Wind Variable Wind from WNW

Today
High -- | Low -- °F
--% Chance of Precip.
Yesterday
High -- | Low -- °F
Precip. -- in
9:58 AM 6:40 PM
Waning Crescent, 2% visible
Pressure 29.91 in
Visibility 10.0 miles
Clouds Clear
Windchill 7 °F
Dew Point 11 °F
Humidity 92%
Rainfall 0.00 in
Snow Depth Not available.
UV 0 out of 12
Pollen Not available.
Air Quality Not available.
Flu Activity Sporadic
METAR PAIK 221501Z AUTO 29003KT 10SM CLR M11/M12 A2978 RMK AO2 SLP129 T11061117 53007 FZRANO

More Conditions Fewer Conditions

Pressure 29.91 in
Visibility 10.0 miles
Clouds Clear
Windchill 7 °F
Dew Point 11 °F
Humidity 92%
Rainfall 0.00 in
Snow Depth Not available.
UV 0 out of 12
Pollen Not available.
Air Quality Not available.
Flu Activity Sporadic
METAR PAIK 221501Z AUTO 29003KT 10SM CLR M11/M12 A2978 RMK AO2 SLP129 T11061117 53007 FZRANO

More Conditions Fewer Conditions

10-Day Weather Forecast

Almanac

Astronomy

Oct. 22, 2014 Rise Set
Actual Time 9:58 AM AKDT 6:40 PM AKDT
Civil Twilight 9:03 AM AKDT 7:35 PM AKDT
Nautical Twilight 8:02 AM AKDT 8:36 PM AKDT
Astronomical Twilight 7:02 AM AKDT 9:36 PM AKDT
Moon 8:25 AM AKDT 6:31 PM AKDT
Length of Visible Light 10h 32m
Length of Day
8h 42m
Tomorrow will be 7m 18s shorter.
Waning Crescent, 2% of the Moon is Illuminated
Today
Waning Crescent
Oct 23
New
Oct 30
First Quarter
Nov 6
Full
Nov 14
Last Quarter

Today's Extremes

State Highs State Lows

Community

WunderPhotos

Upload Photos

1,763,949 photos uploaded!

Nearby

Snow Depth

Station Depth Elevation
Pargon Creek 0 in 300 ft
Rocky Point 2 in 500 ft
Gobblers Knob 1 in 2030 ft
Coldfoot 5 in 1040 ft
Atigun Pass 15 in 4800 ft

Earthquake Activity

City Distance Mag. Time & Date
No recent earthquake activity has been reported nearby.
Minimum magnitude displayed is 2.5.

Coastal Water Temperatures

Place Temperature
No Stations Reporting

Nearby Weather Stations